sensor_id;sensor_type;location;lat;lon;timestamp;temperature;humidity
56727;DHT22;42609;52.700;6.236;2023-04-24T00:02:03;12.20;99.90
56727;DHT22;42609;52.700;6.236;2023-04-24T00:04:29;12.20;99.90
56727;DHT22;42609;52.700;6.236;2023-04-24T00:06:55;12.20;99.90
56727;DHT22;42609;52.700;6.236;2023-04-24T00:09:22;12.10;99.90
56727;DHT22;42609;52.700;6.236;2023-04-24T00:11:48;12.20;99.90
56727;DHT22;42609;52.700;6.236;2023-04-24T00:14:14;12.10;99.90
56727;DHT22;42609;52.700;6.236;2023-04-24T00:16:40;12.10;99.90
56727;DHT22;42609;52.700;6.236;2023-04-24T00:19:06;12.10;99.90
56727;DHT22;42609;52.700;6.236;2023-04-24T00:21:32;12.10;99.90
56727;DHT22;42609;52.700;6.236;2023-04-24T00:23:58;12.10;99.90
56727;DHT22;42609;52.700;6.236;2023-04-24T00:26:23;12.00;99.90
56727;DHT22;42609;52.700;6.236;2023-04-24T00:28:49;12.00;99.90
56727;DHT22;42609;52.700;6.236;2023-04-24T00:31:15;12.00;99.90
56727;DHT22;42609;52.700;6.236;2023-04-24T00:33:40;11.90;99.90
56727;DHT22;42609;52.700;6.236;2023-04-24T00:36:06;11.90;99.90
56727;DHT22;42609;52.700;6.236;2023-04-24T00:38:33;11.90;99.90
56727;DHT22;42609;52.700;6.236;2023-04-24T00:40:58;11.80;99.90
56727;DHT22;42609;52.700;6.236;2023-04-24T00:43:24;11.80;99.90
56727;DHT22;42609;52.700;6.236;2023-04-24T00:45:50;11.80;99.90
56727;DHT22;42609;52.700;6.236;2023-04-24T00:48:16;11.80;99.90
56727;DHT22;42609;52.700;6.236;2023-04-24T00:50:42;11.80;99.90
56727;DHT22;42609;52.700;6.236;2023-04-24T00:53:08;11.80;99.90
56727;DHT22;42609;52.700;6.236;2023-04-24T00:55:34;11.80;99.90
56727;DHT22;42609;52.700;6.236;2023-04-24T00:58:00;11.80;99.90
56727;DHT22;42609;52.700;6.236;2023-04-24T01:00:26;11.80;99.90
56727;DHT22;42609;52.700;6.236;2023-04-24T01:02:52;11.70;99.90
56727;DHT22;42609;52.700;6.236;2023-04-24T01:05:18;11.70;99.90
56727;DHT22;42609;52.700;6.236;2023-04-24T01:07:45;11.70;99.90
56727;DHT22;42609;52.700;6.236;2023-04-24T01:10:13;11.70;99.90
56727;DHT22;42609;52.700;6.236;2023-04-24T01:12:39;11.70;99.90
56727;DHT22;42609;52.700;6.236;2023-04-24T01:15:05;11.70;99.90
56727;DHT22;42609;52.700;6.236;2023-04-24T01:17:34;11.70;99.90
56727;DHT22;42609;52.700;6.236;2023-04-24T01:20:00;11.70;99.90
56727;DHT22;42609;52.700;6.236;2023-04-24T01:22:27;11.70;99.90
56727;DHT22;42609;52.700;6.236;2023-04-24T01:24:53;11.70;99.90
56727;DHT22;42609;52.700;6.236;2023-04-24T01:27:19;11.60;99.90
56727;DHT22;42609;52.700;6.236;2023-04-24T01:29:45;11.50;99.90
56727;DHT22;42609;52.700;6.236;2023-04-24T01:32:13;11.50;99.90
56727;DHT22;42609;52.700;6.236;2023-04-24T01:34:38;11.50;99.90
56727;DHT22;42609;52.700;6.236;2023-04-24T01:37:05;11.50;99.90
56727;DHT22;42609;52.700;6.236;2023-04-24T01:39:31;11.50;99.90
56727;DHT22;42609;52.700;6.236;2023-04-24T01:41:56;11.40;99.90
56727;DHT22;42609;52.700;6.236;2023-04-24T01:44:23;11.40;99.90
56727;DHT22;42609;52.700;6.236;2023-04-24T01:46:49;11.40;99.90
56727;DHT22;42609;52.700;6.236;2023-04-24T01:49:14;11.40;99.90
56727;DHT22;42609;52.700;6.236;2023-04-24T01:51:40;11.30;99.90
56727;DHT22;42609;52.700;6.236;2023-04-24T01:54:06;11.30;99.90
56727;DHT22;42609;52.700;6.236;2023-04-24T01:56:33;11.30;99.90
56727;DHT22;42609;52.700;6.236;2023-04-24T01:59:03;11.20;99.90
56727;DHT22;42609;52.700;6.236;2023-04-24T02:01:34;11.20;99.90
56727;DHT22;42609;52.700;6.236;2023-04-24T02:04:01;11.20;99.90
56727;DHT22;42609;52.700;6.236;2023-04-24T02:06:26;11.10;99.90
56727;DHT22;42609;52.700;6.236;2023-04-24T02:08:52;11.10;99.90
56727;DHT22;42609;52.700;6.236;2023-04-24T02:11:18;11.10;99.90
56727;DHT22;42609;52.700;6.236;2023-04-24T02:13:44;11.10;99.90
56727;DHT22;42609;52.700;6.236;2023-04-24T02:16:09;11.10;99.90
56727;DHT22;42609;52.700;6.236;2023-04-24T02:18:35;11.00;99.90
56727;DHT22;42609;52.700;6.236;2023-04-24T02:21:01;10.90;99.90
56727;DHT22;42609;52.700;6.236;2023-04-24T02:23:26;11.00;99.90
56727;DHT22;42609;52.700;6.236;2023-04-24T02:25:52;10.90;99.90
56727;DHT22;42609;52.700;6.236;2023-04-24T02:28:19;10.90;99.90
56727;DHT22;42609;52.700;6.236;2023-04-24T02:30:44;11.00;99.90
56727;DHT22;42609;52.700;6.236;2023-04-24T02:33:11;10.90;99.90
56727;DHT22;42609;52.700;6.236;2023-04-24T02:35:37;10.90;99.90
56727;DHT22;42609;52.700;6.236;2023-04-24T02:38:03;10.80;99.90
56727;DHT22;42609;52.700;6.236;2023-04-24T02:40:29;10.80;99.90
56727;DHT22;42609;52.700;6.236;2023-04-24T02:42:55;10.90;99.90
56727;DHT22;42609;52.700;6.236;2023-04-24T02:45:20;10.90;99.90
56727;DHT22;42609;52.700;6.236;2023-04-24T02:47:46;10.90;99.90
56727;DHT22;42609;52.700;6.236;2023-04-24T02:50:11;10.90;99.90
56727;DHT22;42609;52.700;6.236;2023-04-24T02:52:37;10.90;99.90
56727;DHT22;42609;52.700;6.236;2023-04-24T02:55:03;10.90;99.90
56727;DHT22;42609;52.700;6.236;2023-04-24T02:57:28;10.80;99.90
56727;DHT22;42609;52.700;6.236;2023-04-24T02:59:54;10.80;99.90
56727;DHT22;42609;52.700;6.236;2023-04-24T03:02:20;10.80;99.90
56727;DHT22;42609;52.700;6.236;2023-04-24T03:04:46;10.80;99.90
56727;DHT22;42609;52.700;6.236;2023-04-24T03:07:13;10.80;99.90
56727;DHT22;42609;52.700;6.236;2023-04-24T03:09:40;10.80;99.90
56727;DHT22;42609;52.700;6.236;2023-04-24T03:12:05;10.80;99.90
56727;DHT22;42609;52.700;6.236;2023-04-24T03:14:31;10.80;99.90
56727;DHT22;42609;52.700;6.236;2023-04-24T03:16:57;10.80;99.90
56727;DHT22;42609;52.700;6.236;2023-04-24T03:19:22;10.70;99.90
56727;DHT22;42609;52.700;6.236;2023-04-24T03:21:48;10.70;99.90
56727;DHT22;42609;52.700;6.236;2023-04-24T03:24:14;10.70;99.90
56727;DHT22;42609;52.700;6.236;2023-04-24T03:26:40;10.70;99.90
56727;DHT22;42609;52.700;6.236;2023-04-24T03:29:05;10.70;99.90
56727;DHT22;42609;52.700;6.236;2023-04-24T03:31:31;10.70;99.90
56727;DHT22;42609;52.700;6.236;2023-04-24T03:33:57;10.70;99.90
56727;DHT22;42609;52.700;6.236;2023-04-24T03:36:22;10.70;99.90
56727;DHT22;42609;52.700;6.236;2023-04-24T03:38:48;10.70;99.90
56727;DHT22;42609;52.700;6.236;2023-04-24T03:41:13;10.70;99.90
56727;DHT22;42609;52.700;6.236;2023-04-24T03:43:39;10.70;99.90
56727;DHT22;42609;52.700;6.236;2023-04-24T03:46:05;10.50;99.90
56727;DHT22;42609;52.700;6.236;2023-04-24T03:48:30;10.60;99.90
56727;DHT22;42609;52.700;6.236;2023-04-24T03:50:56;10.50;99.90
56727;DHT22;42609;52.700;6.236;2023-04-24T03:53:22;10.60;99.90
56727;DHT22;42609;52.700;6.236;2023-04-24T03:55:47;10.50;99.90
56727;DHT22;42609;52.700;6.236;2023-04-24T03:58:13;10.40;99.90
56727;DHT22;42609;52.700;6.236;2023-04-24T04:00:43;10.30;99.90
56727;DHT22;42609;52.700;6.236;2023-04-24T04:03:09;10.30;99.90
56727;DHT22;42609;52.700;6.236;2023-04-24T04:05:35;10.20;99.90
56727;DHT22;42609;52.700;6.236;2023-04-24T04:08:00;10.30;99.90
56727;DHT22;42609;52.700;6.236;2023-04-24T04:10:26;10.30;99.90
56727;DHT22;42609;52.700;6.236;2023-04-24T04:12:51;10.30;99.90
56727;DHT22;42609;52.700;6.236;2023-04-24T04:15:17;10.20;99.90
56727;DHT22;42609;52.700;6.236;2023-04-24T04:17:43;10.20;99.90
56727;DHT22;42609;52.700;6.236;2023-04-24T04:20:09;10.10;99.90
56727;DHT22;42609;52.700;6.236;2023-04-24T04:22:36;10.20;99.90
56727;DHT22;42609;52.700;6.236;2023-04-24T04:25:02;10.20;99.90
56727;DHT22;42609;52.700;6.236;2023-04-24T04:27:28;10.20;99.90
56727;DHT22;42609;52.700;6.236;2023-04-24T04:30:00;10.20;99.90
56727;DHT22;42609;52.700;6.236;2023-04-24T04:32:33;10.20;99.90
56727;DHT22;42609;52.700;6.236;2023-04-24T04:34:59;10.20;99.90
56727;DHT22;42609;52.700;6.236;2023-04-24T04:37:32;10.20;99.90
56727;DHT22;42609;52.700;6.236;2023-04-24T04:40:02;10.20;99.90
56727;DHT22;42609;52.700;6.236;2023-04-24T04:42:32;10.30;99.90
56727;DHT22;42609;52.700;6.236;2023-04-24T04:44:59;10.30;99.90
56727;DHT22;42609;52.700;6.236;2023-04-24T04:47:25;10.40;99.90
56727;DHT22;42609;52.700;6.236;2023-04-24T04:49:51;10.40;99.90
56727;DHT22;42609;52.700;6.236;2023-04-24T04:52:18;10.40;99.90
56727;DHT22;42609;52.700;6.236;2023-04-24T04:54:43;10.40;99.90
56727;DHT22;42609;52.700;6.236;2023-04-24T04:57:10;10.50;99.90
56727;DHT22;42609;52.700;6.236;2023-04-24T04:59:35;10.50;99.90
56727;DHT22;42609;52.700;6.236;2023-04-24T05:02:01;10.50;99.90
56727;DHT22;42609;52.700;6.236;2023-04-24T05:04:26;10.50;99.90
56727;DHT22;42609;52.700;6.236;2023-04-24T05:06:52;10.50;99.90
56727;DHT22;42609;52.700;6.236;2023-04-24T05:09:18;10.50;99.90
56727;DHT22;42609;52.700;6.236;2023-04-24T05:11:44;10.50;99.90
56727;DHT22;42609;52.700;6.236;2023-04-24T05:14:09;10.50;99.90
56727;DHT22;42609;52.700;6.236;2023-04-24T05:16:35;10.50;99.90
56727;DHT22;42609;52.700;6.236;2023-04-24T05:19:02;10.50;99.90
56727;DHT22;42609;52.700;6.236;2023-04-24T05:21:28;10.50;99.90
56727;DHT22;42609;52.700;6.236;2023-04-24T05:23:54;10.50;99.90
56727;DHT22;42609;52.700;6.236;2023-04-24T05:26:20;10.50;99.90
56727;DHT22;42609;52.700;6.236;2023-04-24T05:28:45;10.50;99.90
56727;DHT22;42609;52.700;6.236;2023-04-24T05:31:11;10.40;99.90
56727;DHT22;42609;52.700;6.236;2023-04-24T05:33:37;10.50;99.90
56727;DHT22;42609;52.700;6.236;2023-04-24T05:36:03;10.50;99.90
56727;DHT22;42609;52.700;6.236;2023-04-24T05:38:30;10.50;99.90
56727;DHT22;42609;52.700;6.236;2023-04-24T05:40:56;10.40;99.90
56727;DHT22;42609;52.700;6.236;2023-04-24T05:43:22;10.50;99.90
56727;DHT22;42609;52.700;6.236;2023-04-24T05:45:47;10.50;99.90
56727;DHT22;42609;52.700;6.236;2023-04-24T05:48:13;10.40;99.90
56727;DHT22;42609;52.700;6.236;2023-04-24T05:50:38;10.50;99.90
56727;DHT22;42609;52.700;6.236;2023-04-24T05:53:04;10.50;99.90
56727;DHT22;42609;52.700;6.236;2023-04-24T05:55:30;10.50;99.90
56727;DHT22;42609;52.700;6.236;2023-04-24T05:57:56;10.40;99.90
56727;DHT22;42609;52.700;6.236;2023-04-24T06:00:22;10.40;99.90
56727;DHT22;42609;52.700;6.236;2023-04-24T06:02:47;10.40;99.90
56727;DHT22;42609;52.700;6.236;2023-04-24T06:05:13;10.40;99.90
56727;DHT22;42609;52.700;6.236;2023-04-24T06:07:39;10.40;99.90
56727;DHT22;42609;52.700;6.236;2023-04-24T06:10:05;10.40;99.90
56727;DHT22;42609;52.700;6.236;2023-04-24T06:12:31;10.40;99.90
56727;DHT22;42609;52.700;6.236;2023-04-24T06:14:57;10.40;99.90
56727;DHT22;42609;52.700;6.236;2023-04-24T06:17:22;10.40;99.90
56727;DHT22;42609;52.700;6.236;2023-04-24T06:19:48;10.40;99.90
56727;DHT22;42609;52.700;6.236;2023-04-24T06:22:14;10.40;99.90
56727;DHT22;42609;52.700;6.236;2023-04-24T06:24:40;10.30;99.90
56727;DHT22;42609;52.700;6.236;2023-04-24T06:27:06;10.30;99.90
56727;DHT22;42609;52.700;6.236;2023-04-24T06:29:33;10.30;99.90
56727;DHT22;42609;52.700;6.236;2023-04-24T06:31:59;10.30;99.90
56727;DHT22;42609;52.700;6.236;2023-04-24T06:34:24;10.30;99.90
56727;DHT22;42609;52.700;6.236;2023-04-24T06:36:50;10.30;99.90
56727;DHT22;42609;52.700;6.236;2023-04-24T06:39:16;10.30;99.90
56727;DHT22;42609;52.700;6.236;2023-04-24T06:41:41;10.30;99.90
56727;DHT22;42609;52.700;6.236;2023-04-24T06:44:07;10.30;99.90
56727;DHT22;42609;52.700;6.236;2023-04-24T06:46:32;10.30;99.90
56727;DHT22;42609;52.700;6.236;2023-04-24T06:48:58;10.30;99.90
56727;DHT22;42609;52.700;6.236;2023-04-24T06:51:25;10.30;99.90
56727;DHT22;42609;52.700;6.236;2023-04-24T06:53:54;10.30;99.90
56727;DHT22;42609;52.700;6.236;2023-04-24T06:56:21;10.30;99.90
56727;DHT22;42609;52.700;6.236;2023-04-24T06:58:47;10.40;99.90
56727;DHT22;42609;52.700;6.236;2023-04-24T07:01:13;10.30;99.90
56727;DHT22;42609;52.700;6.236;2023-04-24T07:03:38;10.40;99.90
56727;DHT22;42609;52.700;6.236;2023-04-24T07:06:05;10.40;99.90
56727;DHT22;42609;52.700;6.236;2023-04-24T07:08:31;10.30;99.90
56727;DHT22;42609;52.700;6.236;2023-04-24T07:10:58;10.30;99.90
56727;DHT22;42609;52.700;6.236;2023-04-24T07:13:25;10.30;99.90
56727;DHT22;42609;52.700;6.236;2023-04-24T07:15:51;10.30;99.90
56727;DHT22;42609;52.700;6.236;2023-04-24T07:18:19;10.30;99.90
56727;DHT22;42609;52.700;6.236;2023-04-24T07:20:45;10.30;99.90
56727;DHT22;42609;52.700;6.236;2023-04-24T07:23:11;10.30;99.90
56727;DHT22;42609;52.700;6.236;2023-04-24T07:25:36;10.20;99.90
56727;DHT22;42609;52.700;6.236;2023-04-24T07:28:03;10.20;99.90
56727;DHT22;42609;52.700;6.236;2023-04-24T07:30:30;10.30;99.90
56727;DHT22;42609;52.700;6.236;2023-04-24T07:32:58;10.20;99.90
56727;DHT22;42609;52.700;6.236;2023-04-24T07:35:24;10.30;99.90
56727;DHT22;42609;52.700;6.236;2023-04-24T07:37:51;10.30;99.90
56727;DHT22;42609;52.700;6.236;2023-04-24T07:40:17;10.30;99.90
56727;DHT22;42609;52.700;6.236;2023-04-24T07:42:42;10.20;99.90
56727;DHT22;42609;52.700;6.236;2023-04-24T07:45:09;10.20;99.90
56727;DHT22;42609;52.700;6.236;2023-04-24T07:47:34;10.10;99.90
56727;DHT22;42609;52.700;6.236;2023-04-24T07:50:02;10.10;99.90
56727;DHT22;42609;52.700;6.236;2023-04-24T07:52:27;10.10;99.90
56727;DHT22;42609;52.700;6.236;2023-04-24T07:54:54;10.10;99.90
56727;DHT22;42609;52.700;6.236;2023-04-24T07:57:24;10.10;99.90
56727;DHT22;42609;52.700;6.236;2023-04-24T07:59:50;10.00;99.90
56727;DHT22;42609;52.700;6.236;2023-04-24T08:02:16;10.00;99.90
56727;DHT22;42609;52.700;6.236;2023-04-24T08:04:42;10.10;99.90
56727;DHT22;42609;52.700;6.236;2023-04-24T08:07:07;9.90;99.90
56727;DHT22;42609;52.700;6.236;2023-04-24T08:09:33;10.00;99.90
56727;DHT22;42609;52.700;6.236;2023-04-24T08:11:59;9.90;99.90
56727;DHT22;42609;52.700;6.236;2023-04-24T08:14:25;9.80;99.90
56727;DHT22;42609;52.700;6.236;2023-04-24T08:16:51;9.80;99.90
56727;DHT22;42609;52.700;6.236;2023-04-24T08:19:17;9.80;99.90
56727;DHT22;42609;52.700;6.236;2023-04-24T08:21:43;9.80;99.90
56727;DHT22;42609;52.700;6.236;2023-04-24T08:24:08;9.80;99.90
56727;DHT22;42609;52.700;6.236;2023-04-24T08:26:34;9.70;99.90
56727;DHT22;42609;52.700;6.236;2023-04-24T08:28:59;9.70;99.90
56727;DHT22;42609;52.700;6.236;2023-04-24T08:31:25;9.70;99.90
56727;DHT22;42609;52.700;6.236;2023-04-24T08:33:51;9.60;99.90
56727;DHT22;42609;52.700;6.236;2023-04-24T08:36:17;9.60;99.90
56727;DHT22;42609;52.700;6.236;2023-04-24T08:38:42;9.50;99.90
56727;DHT22;42609;52.700;6.236;2023-04-24T08:41:09;9.50;99.90
56727;DHT22;42609;52.700;6.236;2023-04-24T08:43:35;9.50;99.90
56727;DHT22;42609;52.700;6.236;2023-04-24T08:46:03;9.50;99.90
56727;DHT22;42609;52.700;6.236;2023-04-24T08:48:30;9.50;99.90
56727;DHT22;42609;52.700;6.236;2023-04-24T08:50:57;9.60;99.90
56727;DHT22;42609;52.700;6.236;2023-04-24T08:53:24;9.60;99.90
56727;DHT22;42609;52.700;6.236;2023-04-24T08:55:50;9.60;99.90
56727;DHT22;42609;52.700;6.236;2023-04-24T08:58:17;9.60;99.90
56727;DHT22;42609;52.700;6.236;2023-04-24T09:00:43;9.70;99.90
56727;DHT22;42609;52.700;6.236;2023-04-24T09:03:14;9.80;99.90
56727;DHT22;42609;52.700;6.236;2023-04-24T09:05:46;9.90;99.90
56727;DHT22;42609;52.700;6.236;2023-04-24T09:08:13;10.00;99.90
56727;DHT22;42609;52.700;6.236;2023-04-24T09:10:40;10.00;99.90
56727;DHT22;42609;52.700;6.236;2023-04-24T09:13:06;10.10;99.90
56727;DHT22;42609;52.700;6.236;2023-04-24T09:15:34;10.00;99.90
56727;DHT22;42609;52.700;6.236;2023-04-24T09:18:00;10.10;99.90
56727;DHT22;42609;52.700;6.236;2023-04-24T09:20:26;10.20;99.90
56727;DHT22;42609;52.700;6.236;2023-04-24T09:22:54;10.30;99.90
56727;DHT22;42609;52.700;6.236;2023-04-24T09:25:21;10.40;99.90
56727;DHT22;42609;52.700;6.236;2023-04-24T09:27:47;10.40;99.90
56727;DHT22;42609;52.700;6.236;2023-04-24T09:30:13;10.40;99.90
56727;DHT22;42609;52.700;6.236;2023-04-24T09:32:39;10.50;99.90
56727;DHT22;42609;52.700;6.236;2023-04-24T09:35:11;10.50;99.90
56727;DHT22;42609;52.700;6.236;2023-04-24T09:37:40;10.60;99.90
56727;DHT22;42609;52.700;6.236;2023-04-24T09:40:18;10.50;99.90
56727;DHT22;42609;52.700;6.236;2023-04-24T09:42:52;10.40;99.90
56727;DHT22;42609;52.700;6.236;2023-04-24T09:45:21;10.50;99.90
56727;DHT22;42609;52.700;6.236;2023-04-24T09:47:51;10.40;99.90
56727;DHT22;42609;52.700;6.236;2023-04-24T09:50:21;10.40;99.90
56727;DHT22;42609;52.700;6.236;2023-04-24T09:53:06;10.40;99.90
56727;DHT22;42609;52.700;6.236;2023-04-24T09:55:45;10.30;99.90
56727;DHT22;42609;52.700;6.236;2023-04-24T09:58:14;10.20;99.90
56727;DHT22;42609;52.700;6.236;2023-04-24T10:00:40;10.00;99.90
56727;DHT22;42609;52.700;6.236;2023-04-24T10:03:06;9.80;99.90
56727;DHT22;42609;52.700;6.236;2023-04-24T10:05:34;9.60;99.90
56727;DHT22;42609;52.700;6.236;2023-04-24T10:08:06;9.50;99.90
56727;DHT22;42609;52.700;6.236;2023-04-24T10:10:33;9.50;99.90
56727;DHT22;42609;52.700;6.236;2023-04-24T10:13:00;9.40;99.90
56727;DHT22;42609;52.700;6.236;2023-04-24T10:15:26;9.50;99.90
56727;DHT22;42609;52.700;6.236;2023-04-24T10:17:52;9.40;99.90
56727;DHT22;42609;52.700;6.236;2023-04-24T10:20:20;9.50;99.90
56727;DHT22;42609;52.700;6.236;2023-04-24T10:22:48;9.60;99.90
56727;DHT22;42609;52.700;6.236;2023-04-24T10:25:16;9.70;99.90
56727;DHT22;42609;52.700;6.236;2023-04-24T10:27:43;9.70;99.90
56727;DHT22;42609;52.700;6.236;2023-04-24T10:30:12;9.80;99.90
56727;DHT22;42609;52.700;6.236;2023-04-24T10:32:38;9.90;99.90
56727;DHT22;42609;52.700;6.236;2023-04-24T10:35:04;9.90;99.90
56727;DHT22;42609;52.700;6.236;2023-04-24T10:37:36;10.00;99.90
56727;DHT22;42609;52.700;6.236;2023-04-24T10:40:03;10.00;99.90
56727;DHT22;42609;52.700;6.236;2023-04-24T10:42:29;10.20;99.90
56727;DHT22;42609;52.700;6.236;2023-04-24T10:44:55;10.40;99.90
56727;DHT22;42609;52.700;6.236;2023-04-24T10:47:21;10.60;99.90
56727;DHT22;42609;52.700;6.236;2023-04-24T10:49:50;10.80;99.90
56727;DHT22;42609;52.700;6.236;2023-04-24T10:52:16;10.80;99.90
56727;DHT22;42609;52.700;6.236;2023-04-24T10:54:44;11.00;99.90
56727;DHT22;42609;52.700;6.236;2023-04-24T10:59:45;11.20;99.90
56727;DHT22;42609;52.700;6.236;2023-04-24T11:02:11;11.10;99.90
56727;DHT22;42609;52.700;6.236;2023-04-24T11:04:39;10.90;99.90
56727;DHT22;42609;52.700;6.236;2023-04-24T11:07:05;10.80;99.90
56727;DHT22;42609;52.700;6.236;2023-04-24T11:09:31;10.90;99.90
56727;DHT22;42609;52.700;6.236;2023-04-24T11:12:06;10.90;99.90
56727;DHT22;42609;52.700;6.236;2023-04-24T11:17:36;10.90;99.90
56727;DHT22;42609;52.700;6.236;2023-04-24T11:20:11;10.80;99.90
56727;DHT22;42609;52.700;6.236;2023-04-24T11:22:38;10.80;99.90
56727;DHT22;42609;52.700;6.236;2023-04-24T11:25:06;10.90;99.90
56727;DHT22;42609;52.700;6.236;2023-04-24T11:27:43;11.00;99.90
56727;DHT22;42609;52.700;6.236;2023-04-24T11:30:09;11.00;99.90
56727;DHT22;42609;52.700;6.236;2023-04-24T11:32:40;11.00;99.90
56727;DHT22;42609;52.700;6.236;2023-04-24T11:37:37;10.90;99.90
56727;DHT22;42609;52.700;6.236;2023-04-24T11:40:04;10.80;99.90
56727;DHT22;42609;52.700;6.236;2023-04-24T11:42:35;10.60;99.90
56727;DHT22;42609;52.700;6.236;2023-04-24T11:45:01;10.60;99.90
56727;DHT22;42609;52.700;6.236;2023-04-24T11:47:30;10.60;99.90
56727;DHT22;42609;52.700;6.236;2023-04-24T11:49:58;10.60;99.90
56727;DHT22;42609;52.700;6.236;2023-04-24T11:52:26;10.60;99.90
56727;DHT22;42609;52.700;6.236;2023-04-24T11:54:52;10.70;99.90
56727;DHT22;42609;52.700;6.236;2023-04-24T11:57:21;10.70;99.90
56727;DHT22;42609;52.700;6.236;2023-04-24T11:59:48;10.60;99.90
56727;DHT22;42609;52.700;6.236;2023-04-24T12:02:24;10.60;99.90
56727;DHT22;42609;52.700;6.236;2023-04-24T12:04:50;10.70;99.90
56727;DHT22;42609;52.700;6.236;2023-04-24T12:07:16;10.80;99.90
56727;DHT22;42609;52.700;6.236;2023-04-24T12:10:06;10.80;99.90
56727;DHT22;42609;52.700;6.236;2023-04-24T12:12:31;10.90;99.90
56727;DHT22;42609;52.700;6.236;2023-04-24T12:14:58;11.00;99.90
56727;DHT22;42609;52.700;6.236;2023-04-24T12:17:31;11.30;99.90
56727;DHT22;42609;52.700;6.236;2023-04-24T12:19:58;11.40;99.90
56727;DHT22;42609;52.700;6.236;2023-04-24T12:22:25;11.20;99.90
56727;DHT22;42609;52.700;6.236;2023-04-24T12:25:03;11.00;99.90
56727;DHT22;42609;52.700;6.236;2023-04-24T12:27:33;10.60;99.90
56727;DHT22;42609;52.700;6.236;2023-04-24T12:30:01;10.60;99.90
56727;DHT22;42609;52.700;6.236;2023-04-24T12:32:27;10.50;99.90
56727;DHT22;42609;52.700;6.236;2023-04-24T12:34:54;10.50;99.90
56727;DHT22;42609;52.700;6.236;2023-04-24T12:37:20;10.40;99.90
56727;DHT22;42609;52.700;6.236;2023-04-24T12:42:27;10.40;99.90
56727;DHT22;42609;52.700;6.236;2023-04-24T12:44:57;10.30;99.90
56727;DHT22;42609;52.700;6.236;2023-04-24T12:47:24;10.40;99.90
56727;DHT22;42609;52.700;6.236;2023-04-24T12:49:50;10.50;99.90
56727;DHT22;42609;52.700;6.236;2023-04-24T12:52:27;10.50;99.90
56727;DHT22;42609;52.700;6.236;2023-04-24T12:54:54;10.50;99.90
56727;DHT22;42609;52.700;6.236;2023-04-24T12:57:21;10.50;99.90
56727;DHT22;42609;52.700;6.236;2023-04-24T12:59:46;10.50;99.90
56727;DHT22;42609;52.700;6.236;2023-04-24T13:02:12;10.50;99.90
56727;DHT22;42609;52.700;6.236;2023-04-24T13:04:38;10.50;99.90
56727;DHT22;42609;52.700;6.236;2023-04-24T13:07:05;10.50;99.90
56727;DHT22;42609;52.700;6.236;2023-04-24T13:09:31;10.60;99.90
56727;DHT22;42609;52.700;6.236;2023-04-24T13:11:56;10.60;99.90
56727;DHT22;42609;52.700;6.236;2023-04-24T13:14:23;10.60;99.90
56727;DHT22;42609;52.700;6.236;2023-04-24T13:16:49;10.60;99.90
56727;DHT22;42609;52.700;6.236;2023-04-24T13:19:14;10.60;99.90
56727;DHT22;42609;52.700;6.236;2023-04-24T13:21:40;10.50;99.90
56727;DHT22;42609;52.700;6.236;2023-04-24T13:24:06;10.40;99.90
56727;DHT22;42609;52.700;6.236;2023-04-24T13:26:33;10.50;99.90
56727;DHT22;42609;52.700;6.236;2023-04-24T13:28:59;10.40;99.90
56727;DHT22;42609;52.700;6.236;2023-04-24T13:31:24;10.50;99.90
56727;DHT22;42609;52.700;6.236;2023-04-24T13:33:50;10.60;99.90
56727;DHT22;42609;52.700;6.236;2023-04-24T13:36:15;10.60;99.90
56727;DHT22;42609;52.700;6.236;2023-04-24T13:38:43;10.70;99.90
56727;DHT22;42609;52.700;6.236;2023-04-24T13:41:09;10.60;99.90
56727;DHT22;42609;52.700;6.236;2023-04-24T13:43:34;10.50;99.90
56727;DHT22;42609;52.700;6.236;2023-04-24T13:46:00;10.40;99.90
56727;DHT22;42609;52.700;6.236;2023-04-24T13:48:31;10.30;99.90
56727;DHT22;42609;52.700;6.236;2023-04-24T13:50:56;10.30;99.90
56727;DHT22;42609;52.700;6.236;2023-04-24T13:53:22;10.20;99.90
56727;DHT22;42609;52.700;6.236;2023-04-24T13:55:47;10.10;99.90
56727;DHT22;42609;52.700;6.236;2023-04-24T13:58:13;10.10;99.90
56727;DHT22;42609;52.700;6.236;2023-04-24T14:00:40;10.10;99.90
56727;DHT22;42609;52.700;6.236;2023-04-24T14:03:06;10.10;99.90
56727;DHT22;42609;52.700;6.236;2023-04-24T14:05:31;10.00;99.90
56727;DHT22;42609;52.700;6.236;2023-04-24T14:07:57;10.00;99.90
56727;DHT22;42609;52.700;6.236;2023-04-24T14:10:22;10.00;99.90
56727;DHT22;42609;52.700;6.236;2023-04-24T14:12:48;10.10;99.90
56727;DHT22;42609;52.700;6.236;2023-04-24T14:15:13;10.00;99.90
56727;DHT22;42609;52.700;6.236;2023-04-24T14:17:39;9.90;99.90
56727;DHT22;42609;52.700;6.236;2023-04-24T14:20:05;10.00;99.90
56727;DHT22;42609;52.700;6.236;2023-04-24T14:22:32;10.10;99.90
56727;DHT22;42609;52.700;6.236;2023-04-24T14:24:58;10.00;99.90
56727;DHT22;42609;52.700;6.236;2023-04-24T14:27:24;10.00;99.90
56727;DHT22;42609;52.700;6.236;2023-04-24T14:29:50;10.10;99.90
56727;DHT22;42609;52.700;6.236;2023-04-24T14:32:16;10.10;99.90
56727;DHT22;42609;52.700;6.236;2023-04-24T14:34:41;10.10;99.90
56727;DHT22;42609;52.700;6.236;2023-04-24T14:37:07;10.20;99.90
56727;DHT22;42609;52.700;6.236;2023-04-24T14:39:33;10.30;99.90
56727;DHT22;42609;52.700;6.236;2023-04-24T14:41:59;10.30;99.90
56727;DHT22;42609;52.700;6.236;2023-04-24T14:44:25;10.40;99.90
56727;DHT22;42609;52.700;6.236;2023-04-24T14:46:50;10.40;99.90
56727;DHT22;42609;52.700;6.236;2023-04-24T14:49:16;10.30;99.90
56727;DHT22;42609;52.700;6.236;2023-04-24T14:51:41;10.20;99.90
56727;DHT22;42609;52.700;6.236;2023-04-24T14:54:08;10.20;99.90
56727;DHT22;42609;52.700;6.236;2023-04-24T14:56:33;10.10;99.90
56727;DHT22;42609;52.700;6.236;2023-04-24T14:58:59;10.20;99.90
56727;DHT22;42609;52.700;6.236;2023-04-24T15:01:25;10.30;99.90
56727;DHT22;42609;52.700;6.236;2023-04-24T15:03:50;10.40;99.90
56727;DHT22;42609;52.700;6.236;2023-04-24T15:06:16;10.40;99.90
56727;DHT22;42609;52.700;6.236;2023-04-24T15:08:41;10.40;99.90
56727;DHT22;42609;52.700;6.236;2023-04-24T15:11:08;10.40;99.90
56727;DHT22;42609;52.700;6.236;2023-04-24T15:13:34;10.40;99.90
56727;DHT22;42609;52.700;6.236;2023-04-24T15:16:00;10.50;99.90
56727;DHT22;42609;52.700;6.236;2023-04-24T15:18:25;10.60;99.90
56727;DHT22;42609;52.700;6.236;2023-04-24T15:20:53;10.50;99.90
56727;DHT22;42609;52.700;6.236;2023-04-24T15:23:18;10.60;99.90
56727;DHT22;42609;52.700;6.236;2023-04-24T15:25:44;10.50;99.90
56727;DHT22;42609;52.700;6.236;2023-04-24T15:28:09;10.50;99.90
56727;DHT22;42609;52.700;6.236;2023-04-24T15:30:35;10.50;99.90
56727;DHT22;42609;52.700;6.236;2023-04-24T15:33:01;10.70;99.90
56727;DHT22;42609;52.700;6.236;2023-04-24T15:35:27;10.60;99.90
56727;DHT22;42609;52.700;6.236;2023-04-24T15:37:52;10.60;99.90
56727;DHT22;42609;52.700;6.236;2023-04-24T15:40:18;10.70;99.90